| time (UTC) | temp F | wind direction | speed MPH | gust MPH | rain 1hr in | rain 24hr in | rain mn in | humidity % | barometer mb |
| 20260902184939 | 72 | 119 | 7.0 | 9.0 | 0.00 | 0.00 | 0.00 | 54 | 1005.3 |
| 20260902184434 | 71 | 109 | 4.0 | 6.0 | 0.00 | 0.00 | 0.00 | 51 | 1005.5 |
| 20260902183930 | 71 | 148 | 4.0 | 7.0 | 0.00 | 0.00 | 0.00 | 54 | 1005.8 |
| 20260902183426 | 72 | 36 | 0.0 | 0.0 | 0.00 | 0.00 | 0.00 | 56 | 1005.8 |
| 20260902182921 | 72 | 30 | 4.0 | 7.0 | 0.00 | 0.00 | 0.00 | 54 | 1005.9 |
| 20260902182418 | 73 | 28 | 5.0 | 7.0 | 0.00 | 0.00 | 0.00 | 51 | 1005.9 |
| 20260902181914 | 73 | 237 | 8.0 | 10.0 | 0.00 | 0.00 | 0.00 | 51 | 1006.0 |
| 20260902181409 | 71 | 115 | 3.0 | 6.0 | 0.00 | 0.00 | 0.00 | 54 | 1006.0 |
| 20260902180903 | 72 | 148 | 7.0 | 11.0 | 0.00 | 0.00 | 0.00 | 54 | 1006.0 |
| 20260902180358 | 71 | 103 | 5.0 | 8.0 | 0.00 | 0.00 | 0.00 | 56 | 1006.3 |
| 20260902175853 | 70 | 173 | 7.0 | 10.0 | 0.00 | 0.00 | 0.00 | 55 | 1006.2 |
| 20260902175349 | 70 | 142 | 5.0 | 6.0 | 0.00 | 0.00 | 0.00 | 57 | 1006.3 |
| 20260902174844 | 70 | 150 | 3.0 | 5.0 | 0.00 | 0.00 | 0.00 | 56 | 1006.4 |
| 20260902174342 | 70 | 170 | 7.0 | 9.0 | 0.00 | 0.00 | 0.00 | 57 | 1006.7 |
| 20260902173837 | 69 | 178 | 3.0 | 6.0 | 0.00 | 0.00 | 0.00 | 60 | 1006.8 |
| 20260902173336 | 69 | 179 | 8.0 | 11.0 | 0.00 | 0.00 | 0.00 | 58 | 1006.7 |
| 20260902172831 | 68 | 95 | 7.0 | 11.0 | 0.00 | 0.00 | 0.00 | 58 | 1006.7 |
| 20260902172331 | 69 | 133 | 3.0 | 5.0 | 0.00 | 0.00 | 0.00 | 58 | 1006.9 |
| 20260902171825 | 69 | 118 | 6.0 | 10.0 | 0.00 | 0.00 | 0.00 | 59 | 1007.2 |
| 20260902171320 | 69 | 147 | 6.0 | 7.0 | 0.00 | 0.00 | 0.00 | 60 | 1006.8 |
| 20260902170812 | 69 | 155 | 2.0 | 3.0 | 0.00 | 0.00 | 0.00 | 60 | 1007.1 |
| 20260902170307 | 68 | 101 | 10.0 | 15.0 | 0.00 | 0.00 | 0.00 | 61 | 1007.2 |
| 20260902165803 | 68 | 299 | 3.0 | 5.0 | 0.00 | 0.00 | 0.00 | 61 | 1007.3 |
| 20260902165308 | 68 | 90 | 6.0 | 8.0 | 0.00 | 0.00 | 0.00 | 63 | 1007.0 |
| 20260902164756 | 68 | 182 | 3.0 | 5.0 | 0.00 | 0.00 | 0.00 | 64 | 1007.2 |
| 20260902164250 | 68 | 111 | 3.0 | 6.0 | 0.00 | 0.00 | 0.00 | 64 | 1007.3 |
| 20260902163745 | 67 | 97 | 3.0 | 6.0 | 0.00 | 0.00 | 0.00 | 65 | 1007.0 |
| 20260902163244 | 67 | 107 | 6.0 | 8.0 | 0.00 | 0.00 | 0.00 | 65 | 1007.3 |
| 20260902162738 | 66 | 61 | 2.0 | 5.0 | 0.00 | 0.00 | 0.00 | 67 | 1007.4 |
| 20260902162233 | 66 | 207 | 7.0 | 9.0 | 0.00 | 0.00 | 0.00 | 67 | 1007.1 |
| 20260902161728 | 66 | 191 | 8.0 | 10.0 | 0.00 | 0.00 | 0.00 | 68 | 1007.2 |
| 20260902161223 | 65 | 225 | 6.0 | 8.0 | 0.00 | 0.00 | 0.00 | 70 | 1007.3 |
| 20260902160720 | 65 | 123 | 3.0 | 5.0 | 0.00 | 0.00 | 0.00 | 70 | 1007.1 |
| 20260902160214 | 66 | 120 | 4.0 | 6.0 | 0.00 | 0.00 | 0.00 | 70 | 1007.4 |
| 20260902155712 | 66 | 112 | 3.0 | 6.0 | 0.00 | 0.00 | 0.00 | 70 | 1007.6 |
| 20260902155211 | 67 | 142 | 7.0 | 9.0 | 0.00 | 0.00 | 0.00 | 69 | 1007.5 |
| 20260902154706 | 67 | 144 | 1.0 | 2.0 | 0.00 | 0.00 | 0.00 | 70 | 1007.5 |
| 20260902154201 | 66 | 37 | 2.0 | 2.0 | 0.00 | 0.00 | 0.00 | 71 | 1007.8 |
| 20260902153700 | 65 | 137 | 2.0 | 3.0 | 0.00 | 0.00 | 0.00 | 71 | 1007.8 |
| 20260902153155 | 65 | 47 | 1.0 | 1.0 | 0.00 | 0.00 | 0.00 | 73 | 1007.9 |
| 20260902152651 | 66 | 245 | 2.0 | 2.0 | 0.00 | 0.00 | 0.00 | 73 | 1007.9 |
| 20260902152147 | 64 | 41 | 3.0 | 3.0 | 0.00 | 0.00 | 0.00 | 73 | 1007.9 |
| 20260902151642 | 64 | 350 | 1.0 | 2.0 | 0.00 | 0.00 | 0.00 | 75 | 1007.7 |
| 20260902151137 | 64 | 184 | 3.0 | 3.0 | 0.00 | 0.00 | 0.00 | 75 | 1007.9 |
| 20260902150632 | 64 | 84 | 5.0 | 9.0 | 0.00 | 0.00 | 0.00 | 74 | 1008.0 |
| 20260902150127 | 64 | 269 | 1.0 | 2.0 | 0.00 | 0.00 | 0.00 | 74 | 1007.9 |
| 20260902145621 | 64 | 344 | 3.0 | 3.0 | 0.00 | 0.00 | 0.00 | 74 | 1007.9 |
| 20260902145121 | 64 | 153 | 4.0 | 6.0 | 0.00 | 0.00 | 0.00 | 74 | 1007.7 |
| 20260902144618 | 63 | 123 | 3.0 | 6.0 | 0.00 | 0.00 | 0.00 | 74 | 1007.8 |
| 20260902144118 | 64 | 193 | 5.0 | 7.0 | 0.00 | 0.00 | 0.00 | 74 | 1007.9 |
| 20260902143613 | 64 | 339 | 2.0 | 2.0 | 0.00 | 0.00 | 0.00 | 74 | 1007.8 |
| 20260902143109 | 63 | 146 | 3.0 | 3.0 | 0.00 | 0.00 | 0.00 | 74 | 1007.9 |
| 20260902142605 | 63 | 354 | 2.0 | 2.0 | 0.00 | 0.00 | 0.00 | 76 | 1008.0 |
| 20260902142100 | 63 | 271 | 0.0 | 0.0 | 0.00 | 0.00 | 0.00 | 75 | 1008.0 |
| 20260902141559 | 63 | 19 | 2.0 | 2.0 | 0.00 | 0.00 | 0.00 | 76 | 1007.9 |
| 20260902141055 | 63 | 144 | 2.0 | 6.0 | 0.00 | 0.00 | 0.00 | 76 | 1007.9 |
| 20260902140549 | 63 | 197 | 2.0 | 2.0 | 0.00 | 0.00 | 0.00 | 76 | 1007.8 |
| 20260902140046 | 63 | 44 | 4.0 | 5.0 | 0.00 | 0.00 | 0.00 | 76 | 1007.8 |
| 20260902135544 | 63 | 55 | 1.0 | 2.0 | 0.00 | 0.00 | 0.00 | 76 | 1007.9 |
| 20260902135039 | 63 | 88 | 3.0 | 6.0 | 0.00 | 0.00 | 0.00 | 76 | 1007.9 |
| 20260902134535 | 63 | 126 | 4.0 | 6.0 | 0.00 | 0.00 | 0.00 | 76 | 1007.9 |
| 20260902134035 | 63 | 128 | 5.0 | 7.0 | 0.00 | 0.00 | 0.00 | 77 | 1007.8 |
| 20260902133529 | 63 | 109 | 9.0 | 14.0 | 0.00 | 0.00 | 0.00 | 77 | 1008.1 |
| 20260902133024 | 63 | 112 | 5.0 | 8.0 | 0.00 | 0.00 | 0.00 | 78 | 1007.8 |
| 20260902132519 | 63 | 127 | 4.0 | 7.0 | 0.00 | 0.00 | 0.00 | 78 | 1007.9 |
| 20260902132014 | 63 | 189 | 5.0 | 8.0 | 0.00 | 0.00 | 0.00 | 78 | 1007.8 |
| 20260902131511 | 63 | 109 | 5.0 | 7.0 | 0.00 | 0.00 | 0.00 | 77 | 1007.9 |
| 20260902131010 | 63 | 105 | 7.0 | 10.0 | 0.00 | 0.00 | 0.00 | 78 | 1007.9 |
| 20260902130506 | 63 | 43 | 4.0 | 6.0 | 0.00 | 0.00 | 0.00 | 77 | 1008.0 |
| 20260902130001 | 63 | 56 | 3.0 | 7.0 | 0.00 | 0.00 | 0.00 | 78 | 1007.7 |
| 20260902125457 | 62 | 155 | 5.0 | 7.0 | 0.00 | 0.00 | 0.00 | 78 | 1007.7 |
| 20260902124952 | 63 | 332 | 0.0 | 0.0 | 0.00 | 0.00 | 0.00 | 78 | 1007.7 |
| 20260902124449 | 63 | 33 | 4.0 | 7.0 | 0.00 | 0.00 | 0.00 | 77 | 1007.7 |
| 20260902123943 | 62 | 71 | 2.0 | 5.0 | 0.00 | 0.00 | 0.00 | 78 | 1007.7 |
| 20260902123440 | 62 | 354 | 0.0 | 1.0 | 0.00 | 0.00 | 0.00 | 78 | 1008.0 |
| 20260902122938 | 62 | 45 | 2.0 | 3.0 | 0.00 | 0.00 | 0.00 | 79 | 1008.1 |
| 20260902122434 | 62 | 130 | 3.0 | 3.0 | 0.00 | 0.00 | 0.00 | 79 | 1007.7 |
| 20260902121929 | 62 | 175 | 3.0 | 5.0 | 0.00 | 0.00 | 0.00 | 79 | 1007.7 |
| 20260902121424 | 62 | 12 | 1.0 | 3.0 | 0.00 | 0.00 | 0.00 | 79 | 1007.9 |
| 20260902120925 | 62 | 349 | 0.0 | 1.0 | 0.00 | 0.00 | 0.00 | 79 | 1007.9 |
| 20260902120421 | 62 | 117 | 3.0 | 3.0 | 0.00 | 0.00 | 0.00 | 79 | 1008.1 |
| 20260902115920 | 62 | 181 | 5.0 | 7.0 | 0.00 | 0.00 | 0.00 | 78 | 1008.0 |
| 20260902115416 | 62 | 115 | 7.0 | 11.0 | 0.00 | 0.00 | 0.00 | 78 | 1008.5 |
| 20260902114913 | 62 | 159 | 6.0 | 8.0 | 0.00 | 0.00 | 0.00 | 78 | 1008.1 |
| 20260902114408 | 62 | 178 | 3.0 | 5.0 | 0.00 | 0.00 | 0.00 | 79 | 1008.4 |
| 20260902113903 | 62 | 355 | 0.0 | 1.0 | 0.00 | 0.00 | 0.00 | 79 | 1008.3 |
| 20260902113359 | 62 | 109 | 1.0 | 2.0 | 0.00 | 0.00 | 0.00 | 78 | 1008.4 |
| 20260902112858 | 62 | 95 | 3.0 | 7.0 | 0.00 | 0.00 | 0.00 | 78 | 1008.4 |
| 20260902112354 | 62 | 210 | 3.0 | 3.0 | 0.00 | 0.00 | 0.00 | 79 | 1008.5 |
| 20260902111850 | 62 | 260 | 1.0 | 1.0 | 0.00 | 0.00 | 0.00 | 79 | 1008.7 |
| 20260902111346 | 62 | 61 | 3.0 | 5.0 | 0.00 | 0.00 | 0.00 | 78 | 1008.5 |
| 20260902110842 | 62 | 55 | 3.0 | 5.0 | 0.00 | 0.00 | 0.00 | 78 | 1008.6 |
| 20260902110338 | 62 | 152 | 5.0 | 7.0 | 0.00 | 0.00 | 0.00 | 78 | 1008.6 |
| 20260902105837 | 63 | 192 | 2.0 | 3.0 | 0.00 | 0.00 | 0.00 | 78 | 1008.8 |
| 20260902105332 | 62 | 91 | 4.0 | 7.0 | 0.00 | 0.00 | 0.00 | 78 | 1008.9 |
| 20260902104827 | 63 | 328 | 1.0 | 2.0 | 0.00 | 0.00 | 0.00 | 77 | 1008.8 |
| 20260902104323 | 63 | 202 | 3.0 | 3.0 | 0.00 | 0.00 | 0.00 | 78 | 1008.6 |
| 20260902103818 | 63 | 357 | 1.0 | 1.0 | 0.00 | 0.00 | 0.00 | 77 | 1008.9 |
| 20260902103313 | 63 | 221 | 5.0 | 8.0 | 0.00 | 0.00 | 0.00 | 78 | 1009.0 |
| 20260902102808 | 63 | 44 | 1.0 | 2.0 | 0.00 | 0.00 | 0.00 | 77 | 1008.9 |
| 20260902102307 | 63 | 297 | 0.0 | 0.0 | 0.00 | 0.00 | 0.00 | 78 | 1008.8 |
| 20260902101801 | 63 | 340 | 0.0 | 0.0 | 0.00 | 0.00 | 0.00 | 77 | 1009.1 |
| 20260902101255 | 63 | 161 | 2.0 | 2.0 | 0.00 | 0.00 | 0.00 | 77 | 1008.9 |
| 20260902100754 | 63 | 62 | 7.0 | 8.0 | 0.00 | 0.00 | 0.00 | 77 | 1008.9 |
| 20260902100249 | 63 | 101 | 6.0 | 7.0 | 0.00 | 0.00 | 0.00 | 77 | 1008.9 |
| 20260902095743 | 63 | 354 | 1.0 | 1.0 | 0.00 | 0.00 | 0.00 | 78 | 1008.8 |
| 20260902095238 | 63 | 34 | 1.0 | 2.0 | 0.00 | 0.00 | 0.00 | 78 | 1009.2 |
| 20260902094733 | 63 | 19 | 2.0 | 3.0 | 0.00 | 0.00 | 0.00 | 77 | 1009.1 |
| 20260902094229 | 63 | 161 | 5.0 | 8.0 | 0.00 | 0.00 | 0.00 | 77 | 1009.1 |
| 20260902093728 | 63 | 62 | 3.0 | 3.0 | 0.00 | 0.00 | 0.00 | 77 | 1009.0 |
| 20260902093224 | 63 | 248 | 2.0 | 3.0 | 0.00 | 0.00 | 0.00 | 77 | 1009.2 |
| 20260902092723 | 64 | 44 | 3.0 | 5.0 | 0.00 | 0.00 | 0.00 | 76 | 1009.2 |
| 20260902092218 | 64 | 16 | 2.0 | 2.0 | 0.00 | 0.00 | 0.00 | 76 | 1009.3 |
| 20260902091718 | 64 | 85 | 3.0 | 5.0 | 0.00 | 0.00 | 0.00 | 76 | 1009.3 |
| 20260902091214 | 64 | 85 | 0.0 | 1.0 | 0.00 | 0.00 | 0.00 | 76 | 1009.2 |
| 20260902090710 | 64 | 27 | 1.0 | 2.0 | 0.00 | 0.00 | 0.00 | 75 | 1009.4 |
| 20260902090209 | 64 | 206 | 4.0 | 7.0 | 0.00 | 0.00 | 0.00 | 76 | 1009.5 |
| 20260902085704 | 64 | 122 | 5.0 | 5.0 | 0.00 | 0.00 | 0.00 | 76 | 1009.5 |
| 20260902085159 | 64 | 314 | 2.0 | 3.0 | 0.00 | 0.00 | 0.00 | 76 | 1009.3 |
| 20260902084655 | 64 | 338 | 1.0 | 2.0 | 0.00 | 0.00 | 0.00 | 75 | 1009.7 |
| 20260902084151 | 64 | 76 | 1.0 | 1.0 | 0.00 | 0.00 | 0.00 | 75 | 1009.6 |
| 20260902083646 | 64 | 113 | 5.0 | 7.0 | 0.00 | 0.00 | 0.00 | 75 | 1009.6 |
| 20260902083145 | 64 | 314 | 0.0 | 1.0 | 0.00 | 0.00 | 0.00 | 75 | 1009.7 |
| 20260902082641 | 64 | 150 | 7.0 | 9.0 | 0.00 | 0.00 | 0.00 | 75 | 1009.6 |
| 20260902082138 | 64 | 85 | 3.0 | 7.0 | 0.00 | 0.00 | 0.00 | 76 | 1009.6 |
| 20260902081634 | 64 | 76 | 6.0 | 7.0 | 0.00 | 0.00 | 0.00 | 76 | 1009.6 |
| 20260902081134 | 64 | 79 | 2.0 | 2.0 | 0.00 | 0.00 | 0.00 | 76 | 1009.7 |
| 20260902080629 | 64 | 124 | 7.0 | 9.0 | 0.00 | 0.00 | 0.00 | 77 | 1009.5 |
| 20260902080126 | 64 | 81 | 7.0 | 9.0 | 0.00 | 0.00 | 0.00 | 77 | 1009.4 |
| 20260902075625 | 63 | 340 | 2.0 | 3.0 | 0.00 | 0.00 | 0.00 | 79 | 1009.5 |
| 20260902075122 | 63 | 267 | 0.0 | 1.0 | 0.00 | 0.00 | 0.00 | 79 | 1009.6 |
| 20260902074617 | 63 | 31 | 5.0 | 7.0 | 0.00 | 0.00 | 0.00 | 78 | 1009.8 |
| 20260902074112 | 64 | 355 | 1.0 | 1.0 | 0.00 | 0.00 | 0.00 | 79 | 1009.4 |
| 20260902073607 | 63 | 60 | 3.0 | 3.0 | 0.00 | 0.00 | 0.00 | 78 | 1009.5 |
| 20260902073103 | 64 | 115 | 3.0 | 6.0 | 0.00 | 0.00 | 0.00 | 78 | 1009.4 |
| 20260902072559 | 64 | 220 | 1.0 | 3.0 | 0.00 | 0.00 | 0.00 | 78 | 1009.5 |
| 20260902072055 | 64 | 134 | 3.0 | 3.0 | 0.00 | 0.00 | 0.00 | 78 | 1009.4 |
| 20260902071554 | 64 | 56 | 3.0 | 5.0 | 0.00 | 0.00 | 0.00 | 77 | 1009.4 |
| 20260902071051 | 64 | 31 | 0.0 | 1.0 | 0.00 | 0.00 | 0.00 | 76 | 1009.7 |
| 20260902070546 | 64 | 31 | 4.0 | 6.0 | 0.00 | 0.00 | 0.00 | 76 | 1009.4 |
| 20260902070041 | 64 | 131 | 1.0 | 2.0 | 0.00 | 0.00 | 0.00 | 76 | 1009.6 |
| 20260902065541 | 64 | 300 | 1.0 | 1.0 | 0.00 | 0.00 | 0.00 | 77 | 1009.7 |
| 20260902065036 | 64 | 22 | 3.0 | 5.0 | 0.00 | 0.00 | 0.00 | 77 | 1009.6 |
| 20260902064532 | 64 | 136 | 3.0 | 5.0 | 0.00 | 0.00 | 0.00 | 78 | 1009.7 |
| 20260902064027 | 64 | 268 | 0.0 | 1.0 | 0.00 | 0.00 | 0.00 | 78 | 1009.8 |
| 20260902063527 | 64 | 12 | 1.0 | 1.0 | 0.00 | 0.00 | 0.00 | 79 | 1009.4 |
| 20260902063022 | 64 | 102 | 3.0 | 3.0 | 0.00 | 0.00 | 0.00 | 79 | 1009.6 |
| 20260902062520 | 64 | 22 | 5.0 | 7.0 | 0.00 | 0.00 | 0.00 | 79 | 1009.8 |
| 20260902062017 | 64 | 19 | 5.0 | 7.0 | 0.00 | 0.00 | 0.00 | 78 | 1009.7 |
| 20260902061510 | 64 | 307 | 1.0 | 1.0 | 0.00 | 0.00 | 0.00 | 78 | 1010.0 |
| 20260902061007 | 65 | 35 | 3.0 | 5.0 | 0.00 | 0.00 | 0.00 | 78 | 1009.9 |
| 20260902060503 | 65 | 305 | 4.0 | 6.0 | 0.00 | 0.00 | 0.00 | 78 | 1009.7 |
| 20260902055958 | 65 | 197 | 7.0 | 10.0 | 0.00 | 0.00 | 0.00 | 77 | 1009.8 |
| 20260902055455 | 65 | 100 | 3.0 | 3.0 | 0.00 | 0.00 | 0.00 | 78 | 1009.9 |
| 20260902054950 | 64 | 274 | 0.0 | 1.0 | 0.00 | 0.00 | 0.00 | 79 | 1010.0 |
| 20260902054450 | 65 | 201 | 4.0 | 5.0 | 0.00 | 0.00 | 0.00 | 79 | 1010.0 |
| 20260902053946 | 65 | 347 | 3.0 | 5.0 | 0.00 | 0.00 | 0.00 | 78 | 1010.1 |
| 20260902053441 | 65 | 54 | 1.0 | 2.0 | 0.00 | 0.00 | 0.00 | 79 | 1009.9 |
| 20260902052940 | 65 | 15 | 0.0 | 0.0 | 0.00 | 0.00 | 0.00 | 80 | 1010.1 |
| 20260902052435 | 65 | 315 | 1.0 | 1.0 | 0.00 | 0.00 | 0.00 | 79 | 1010.0 |
| 20260902051930 | 65 | 150 | 2.0 | 6.0 | 0.00 | 0.00 | 0.00 | 79 | 1010.0 |
| 20260902051431 | 65 | 356 | 3.0 | 5.0 | 0.00 | 0.00 | 0.00 | 79 | 1010.2 |
| 20260902050929 | 65 | 226 | 1.0 | 1.0 | 0.00 | 0.00 | 0.00 | 79 | 1010.0 |
| 20260902050423 | 65 | 317 | 3.0 | 5.0 | 0.00 | 0.00 | 0.00 | 79 | 1010.2 |
| 20260902045918 | 65 | 252 | 2.0 | 2.0 | 0.00 | 0.00 | 0.00 | 79 | 1010.4 |
| 20260902045414 | 65 | 118 | 6.0 | 7.0 | 0.00 | 0.00 | 0.00 | 80 | 1010.2 |
| 20260902044910 | 65 | 154 | 5.0 | 6.0 | 0.00 | 0.00 | 0.00 | 79 | 1010.3 |
| 20260902044405 | 65 | 58 | 2.0 | 3.0 | 0.00 | 0.00 | 0.00 | 81 | 1010.2 |
| 20260902043901 | 65 | 48 | 1.0 | 2.0 | 0.00 | 0.00 | 0.00 | 81 | 1010.0 |
| 20260902043356 | 65 | 23 | 4.0 | 5.0 | 0.00 | 0.00 | 0.00 | 81 | 1010.2 |
| 20260902042851 | 65 | 62 | 4.0 | 8.0 | 0.00 | 0.00 | 0.00 | 81 | 1010.1 |
| 20260902042350 | 64 | 6 | 2.0 | 6.0 | 0.00 | 0.00 | 0.00 | 82 | 1010.2 |
| 20260902041846 | 64 | 359 | 2.0 | 2.0 | 0.00 | 0.00 | 0.00 | 83 | 1010.0 |
| 20260902041346 | 65 | 336 | 1.0 | 2.0 | 0.00 | 0.00 | 0.00 | 82 | 1010.4 |
| 20260902040844 | 65 | 336 | 1.0 | 2.0 | 0.00 | 0.00 | 0.00 | 82 | 1010.0 |
| 20260902040340 | 65 | 328 | 0.0 | 0.0 | 0.00 | 0.00 | 0.00 | 82 | 1010.2 |
| 20260902035838 | 65 | 63 | 1.0 | 1.0 | 0.00 | 0.00 | 0.00 | 82 | 1010.0 |
| 20260902035334 | 65 | 215 | 1.0 | 2.0 | 0.00 | 0.00 | 0.00 | 82 | 1010.2 |
| 20260902034833 | 65 | 121 | 1.0 | 1.0 | 0.00 | 0.00 | 0.00 | 82 | 1010.1 |
| 20260902034328 | 65 | 186 | 2.0 | 3.0 | 0.00 | 0.00 | 0.00 | 82 | 1010.1 |
| 20260902033826 | 65 | 36 | 0.0 | 1.0 | 0.00 | 0.00 | 0.00 | 82 | 1010.0 |
| 20260902033322 | 65 | 356 | 0.0 | 0.0 | 0.00 | 0.00 | 0.00 | 81 | 1010.0 |
| 20260902032821 | 65 | 69 | 3.0 | 3.0 | 0.00 | 0.00 | 0.00 | 82 | 1010.0 |
| 20260902032315 | 65 | 17 | 2.0 | 3.0 | 0.00 | 0.00 | 0.00 | 81 | 1010.2 |
| 20260902031815 | 65 | 55 | 3.0 | 5.0 | 0.00 | 0.00 | 0.00 | 81 | 1009.9 |
| 20260902031312 | 65 | 146 | 5.0 | 7.0 | 0.00 | 0.00 | 0.00 | 80 | 1009.7 |
| 20260902030807 | 65 | 190 | 1.0 | 2.0 | 0.00 | 0.00 | 0.00 | 80 | 1009.9 |
| 20260902030301 | 66 | 187 | 4.0 | 6.0 | 0.00 | 0.00 | 0.00 | 80 | 1010.0 |
| 20260902025801 | 65 | 141 | 3.0 | 3.0 | 0.00 | 0.00 | 0.00 | 80 | 1010.0 |
| 20260902025256 | 66 | 155 | 1.0 | 2.0 | 0.00 | 0.00 | 0.00 | 79 | 1010.0 |
| 20260902024750 | 66 | 33 | 2.0 | 2.0 | 0.00 | 0.00 | 0.00 | 80 | 1010.1 |
| 20260902024246 | 66 | 1 | 4.0 | 5.0 | 0.00 | 0.00 | 0.00 | 79 | 1010.2 |
| 20260902023742 | 65 | 140 | 3.0 | 3.0 | 0.00 | 0.00 | 0.00 | 80 | 1010.1 |
| 20260902023237 | 65 | 61 | 3.0 | 5.0 | 0.00 | 0.00 | 0.00 | 81 | 1010.2 |
| 20260902022736 | 65 | 96 | 4.0 | 5.0 | 0.00 | 0.00 | 0.00 | 81 | 1010.1 |
| 20260902022232 | 66 | 180 | 3.0 | 3.0 | 0.00 | 0.00 | 0.00 | 80 | 1010.1 |
| 20260902021728 | 66 | 115 | 2.0 | 3.0 | 0.00 | 0.00 | 0.00 | 78 | 1010.0 |
| 20260902021227 | 66 | 174 | 4.0 | 5.0 | 0.00 | 0.00 | 0.00 | 79 | 1010.1 |
| 20260902020723 | 66 | 181 | 5.0 | 8.0 | 0.00 | 0.00 | 0.00 | 79 | 1010.0 |
| 20260902020219 | 66 | 137 | 3.0 | 3.0 | 0.00 | 0.00 | 0.00 | 80 | 1010.2 |
| 20260902015714 | 66 | 135 | 3.0 | 5.0 | 0.00 | 0.00 | 0.00 | 78 | 1010.5 |
| 20260902015211 | 67 | 111 | 1.0 | 1.0 | 0.00 | 0.00 | 0.00 | 78 | 1010.3 |
| 20260902014706 | 67 | 303 | 0.0 | 1.0 | 0.00 | 0.00 | 0.00 | 78 | 1010.2 |
| 20260902014202 | 67 | 250 | 2.0 | 2.0 | 0.00 | 0.00 | 0.00 | 77 | 1010.1 |
| 20260902013701 | 67 | 192 | 2.0 | 2.0 | 0.00 | 0.00 | 0.00 | 76 | 1010.2 |
| 20260902013156 | 68 | 24 | 1.0 | 2.0 | 0.00 | 0.00 | 0.00 | 76 | 1010.3 |
| 20260902012652 | 68 | 274 | 1.0 | 2.0 | 0.00 | 0.00 | 0.00 | 76 | 1010.0 |
| 20260902012148 | 68 | 207 | 2.0 | 2.0 | 0.00 | 0.00 | 0.00 | 75 | 1010.2 |
| 20260902011643 | 68 | 333 | 1.0 | 2.0 | 0.00 | 0.00 | 0.00 | 75 | 1010.0 |
| 20260902011143 | 68 | 85 | 2.0 | 2.0 | 0.00 | 0.00 | 0.00 | 75 | 1010.1 |
| 20260902010642 | 68 | 241 | 2.0 | 2.0 | 0.00 | 0.00 | 0.00 | 75 | 1009.9 |
| 20260902010138 | 67 | 343 | 0.0 | 0.0 | 0.00 | 0.00 | 0.00 | 75 | 1010.0 |
| 20260902005636 | 67 | 276 | 0.0 | 1.0 | 0.00 | 0.00 | 0.00 | 75 | 1010.2 |
| 20260902005132 | 68 | 336 | 1.0 | 2.0 | 0.00 | 0.00 | 0.00 | 74 | 1010.2 |
| 20260902004631 | 68 | 352 | 0.0 | 1.0 | 0.00 | 0.00 | 0.00 | 74 | 1009.9 |
| 20260902004126 | 68 | 295 | 1.0 | 1.0 | 0.00 | 0.00 | 0.00 | 73 | 1009.7 |
| 20260902003622 | 68 | 58 | 1.0 | 2.0 | 0.00 | 0.00 | 0.00 | 73 | 1009.9 |
| 20260902003117 | 68 | 289 | 0.0 | 1.0 | 0.00 | 0.00 | 0.00 | 74 | 1009.9 |
| 20260902002613 | 68 | 347 | 0.0 | 0.0 | 0.00 | 0.00 | 0.00 | 73 | 1009.8 |
| 20260902002108 | 68 | 325 | 0.0 | 0.0 | 0.00 | 0.00 | 0.00 | 73 | 1009.9 |
| 20260902001603 | 68 | 1 | 2.0 | 3.0 | 0.00 | 0.00 | 0.00 | 74 | 1009.8 |
| 20260902001057 | 68 | 323 | 1.0 | 1.0 | 0.00 | 0.00 | 0.00 | 73 | 1009.9 |
| 20260902000552 | 68 | 346 | 0.0 | 0.0 | 0.00 | 0.00 | 0.00 | 74 | 1009.8 |
| 20260902000048 | 68 | 184 | 4.0 | 5.0 | 0.00 | 0.00 | 0.00 | 74 | 1009.7 |
| 20260901235541 | 68 | 301 | 0.0 | 0.0 | 0.00 | 0.00 | 0.00 | 73 | 1009.9 |
| 20260901235038 | 68 | 349 | 1.0 | 1.0 | 0.00 | 0.00 | 0.00 | 74 | 1009.8 |
| 20260901234536 | 68 | 169 | 3.0 | 3.0 | 0.00 | 0.00 | 0.00 | 74 | 1009.8 |
| 20260901234031 | 68 | 214 | 1.0 | 1.0 | 0.00 | 0.00 | 0.00 | 74 | 1009.8 |
| 20260901233526 | 68 | 239 | 6.0 | 7.0 | 0.00 | 0.00 | 0.00 | 73 | 1009.8 |
| 20260901233022 | 68 | 244 | 0.0 | 1.0 | 0.00 | 0.00 | 0.00 | 72 | 1009.9 |
| 20260901232517 | 69 | 172 | 3.0 | 3.0 | 0.00 | 0.00 | 0.00 | 74 | 1009.7 |
| 20260901232012 | 69 | 30 | 1.0 | 1.0 | 0.00 | 0.00 | 0.00 | 73 | 1009.8 |
| 20260901231508 | 69 | 173 | 1.0 | 1.0 | 0.00 | 0.00 | 0.00 | 73 | 1009.9 |
| 20260901231005 | 69 | 82 | 3.0 | 3.0 | 0.00 | 0.00 | 0.00 | 71 | 1009.7 |
| 20260901230504 | 69 | 175 | 4.0 | 6.0 | 0.00 | 0.00 | 0.00 | 72 | 1009.4 |
| 20260901225959 | 69 | 138 | 3.0 | 6.0 | 0.00 | 0.00 | 0.00 | 72 | 1009.5 |
| 20260901225454 | 69 | 153 | 3.0 | 5.0 | 0.00 | 0.00 | 0.00 | 73 | 1009.2 |
| 20260901224949 | 69 | 322 | 0.0 | 0.0 | 0.00 | 0.00 | 0.00 | 73 | 1009.6 |
| 20260901224444 | 69 | 247 | 4.0 | 7.0 | 0.00 | 0.00 | 0.00 | 73 | 1009.4 |
| 20260901223941 | 69 | 207 | 6.0 | 9.0 | 0.00 | 0.00 | 0.00 | 72 | 1009.4 |
| 20260901223436 | 69 | 91 | 1.0 | 2.0 | 0.00 | 0.00 | 0.00 | 72 | 1009.3 |
| 20260901222931 | 69 | 196 | 9.0 | 14.0 | 0.00 | 0.00 | 0.00 | 72 | 1009.4 |
| 20260901222428 | 69 | 34 | 1.0 | 2.0 | 0.00 | 0.00 | 0.00 | 72 | 1009.4 |
| 20260901221924 | 69 | 135 | 5.0 | 7.0 | 0.00 | 0.00 | 0.00 | 71 | 1009.3 |
| 20260901221419 | 70 | 40 | 4.0 | 6.0 | 0.00 | 0.00 | 0.00 | 72 | 1009.3 |
| 20260901220914 | 70 | 224 | 3.0 | 5.0 | 0.00 | 0.00 | 0.00 | 72 | 1009.4 |
| 20260901220413 | 70 | 126 | 4.0 | 7.0 | 0.00 | 0.00 | 0.00 | 72 | 1009.5 |
| 20260901215912 | 70 | 304 | 1.0 | 2.0 | 0.00 | 0.00 | 0.00 | 72 | 1009.5 |
| 20260901215410 | 70 | 191 | 4.0 | 6.0 | 0.00 | 0.00 | 0.00 | 73 | 1009.3 |
| 20260901214910 | 70 | 115 | 5.0 | 7.0 | 0.00 | 0.00 | 0.00 | 71 | 1009.5 |
| 20260901214409 | 70 | 223 | 1.0 | 2.0 | 0.00 | 0.00 | 0.00 | 70 | 1009.3 |
| 20260901213908 | 71 | 139 | 3.0 | 5.0 | 0.00 | 0.00 | 0.00 | 69 | 1009.4 |
| 20260901213403 | 71 | 137 | 4.0 | 5.0 | 0.00 | 0.00 | 0.00 | 69 | 1009.5 |
| 20260901212902 | 72 | 158 | 2.0 | 2.0 | 0.00 | 0.00 | 0.00 | 68 | 1009.5 |
| 20260901212358 | 72 | 209 | 6.0 | 8.0 | 0.00 | 0.00 | 0.00 | 65 | 1009.3 |
| 20260901211854 | 73 | 39 | 2.0 | 3.0 | 0.00 | 0.00 | 0.00 | 64 | 1009.1 |
| 20260901211350 | 73 | 166 | 4.0 | 6.0 | 0.00 | 0.00 | 0.00 | 65 | 1009.3 |
| 20260901210846 | 74 | 110 | 4.0 | 5.0 | 0.00 | 0.00 | 0.00 | 65 | 1009.2 |
| 20260901210341 | 74 | 229 | 2.0 | 5.0 | 0.00 | 0.00 | 0.00 | 65 | 1009.0 |
| 20260901205837 | 74 | 178 | 2.0 | 5.0 | 0.00 | 0.00 | 0.00 | 67 | 1009.4 |
| 20260901205337 | 74 | 302 | 0.0 | 1.0 | 0.00 | 0.00 | 0.00 | 65 | 1009.4 |
| 20260901204832 | 73 | 101 | 5.0 | 7.0 | 0.00 | 0.00 | 0.00 | 65 | 1009.4 |
| 20260901204329 | 74 | 320 | 0.0 | 1.0 | 0.00 | 0.00 | 0.00 | 66 | 1009.6 |
| 20260901203824 | 74 | 268 | 1.0 | 1.0 | 0.00 | 0.00 | 0.00 | 68 | 1009.4 |
| 20260901203323 | 73 | 182 | 4.0 | 5.0 | 0.00 | 0.00 | 0.00 | 63 | 1009.3 |
| 20260901202818 | 73 | 25 | 0.0 | 0.0 | 0.00 | 0.00 | 0.00 | 65 | 1009.5 |
| 20260901202313 | 73 | 289 | 3.0 | 3.0 | 0.00 | 0.00 | 0.00 | 64 | 1009.6 |
| 20260901201809 | 75 | 190 | 1.0 | 1.0 | 0.00 | 0.00 | 0.00 | 63 | 1009.4 |
| 20260901201309 | 74 | 324 | 3.0 | 3.0 | 0.00 | 0.00 | 0.00 | 62 | 1009.6 |
| 20260901200809 | 73 | 316 | 1.0 | 2.0 | 0.00 | 0.00 | 0.00 | 64 | 1009.3 |
| 20260901200304 | 73 | 49 | 2.0 | 3.0 | 0.00 | 0.00 | 0.00 | 63 | 1009.4 |
| 20260901195802 | 73 | 12 | 3.0 | 3.0 | 0.00 | 0.00 | 0.00 | 64 | 1009.6 |
| 20260901195255 | 74 | 35 | 2.0 | 3.0 | 0.00 | 0.00 | 0.00 | 61 | 1009.4 |
| 20260901194751 | 73 | 319 | 0.0 | 0.0 | 0.00 | 0.00 | 0.00 | 62 | 1009.6 |
| 20260901194246 | 73 | 323 | 0.0 | 0.0 | 0.00 | 0.00 | 0.00 | 64 | 1009.5 |
| 20260901193742 | 73 | 198 | 1.0 | 2.0 | 0.00 | 0.00 | 0.00 | 64 | 1009.5 |
| 20260901193240 | 73 | 284 | 1.0 | 2.0 | 0.00 | 0.00 | 0.00 | 68 | 1009.9 |
| 20260901192736 | 74 | 250 | 1.0 | 2.0 | 0.00 | 0.00 | 0.00 | 64 | 1009.7 |
| 20260901192231 | 73 | 253 | 2.0 | 2.0 | 0.00 | 0.00 | 0.00 | 66 | 1009.6 |
| 20260901191727 | 72 | 316 | 0.0 | 0.0 | 0.00 | 0.00 | 0.00 | 69 | 1009.8 |
| 20260901191223 | 71 | 13 | 1.0 | 1.0 | 0.00 | 0.00 | 0.00 | 68 | 1009.7 |
| 20260901190718 | 72 | 303 | 0.0 | 1.0 | 0.00 | 0.00 | 0.00 | 66 | 1009.8 |
| 20260901190218 | 72 | 1 | 0.0 | 0.0 | 0.00 | 0.00 | 0.00 | 68 | 1009.8 |
| 20260901185716 | 72 | 222 | 1.0 | 1.0 | 0.00 | 0.00 | 0.00 | 68 | 1009.8 |
| 20260901185215 | 72 | 40 | 2.0 | 2.0 | 0.00 | 0.00 | 0.00 | 67 | 1009.8 |